createdAt,value
2019-04-02T00:02:31.067Z,12.43
2019-04-02T00:04:58.460Z,12.83
2019-04-02T00:07:26.153Z,11.90
2019-04-02T00:09:54.474Z,11.60
2019-04-02T00:12:22.327Z,11.87
2019-04-02T00:14:49.651Z,11.20
2019-04-02T00:17:17.079Z,10.80
2019-04-02T00:19:44.464Z,10.87
2019-04-02T00:22:11.804Z,10.87
2019-04-02T00:24:39.248Z,12.47
2019-04-02T00:27:06.607Z,13.00
2019-04-02T00:29:33.933Z,13.47
2019-04-02T00:32:01.315Z,13.23
2019-04-02T00:34:28.691Z,13.77
2019-04-02T00:36:56.053Z,15.13
2019-04-02T00:39:23.381Z,14.53
2019-04-02T00:41:50.790Z,13.40
2019-04-02T00:44:18.142Z,16.93
2019-04-02T00:46:45.504Z,16.03
2019-04-02T00:49:13.279Z,14.60
2019-04-02T00:51:42.157Z,15.20
2019-04-02T00:54:09.531Z,14.60
2019-04-02T00:56:36.931Z,15.17
2019-04-02T00:59:04.305Z,15.43
2019-04-02T01:01:31.671Z,15.90
2019-04-02T01:03:59.071Z,16.43
2019-04-02T01:06:26.446Z,17.13
2019-04-02T01:08:53.780Z,16.60
2019-04-02T01:11:21.248Z,16.20
2019-04-02T01:13:49.101Z,15.10
2019-04-02T01:16:16.471Z,15.80
2019-04-02T01:18:43.873Z,14.50
2019-04-02T01:21:11.263Z,14.83
2019-04-02T01:23:38.649Z,15.40
2019-04-02T01:26:05.991Z,14.20
2019-04-02T01:28:33.353Z,14.33
2019-04-02T01:31:00.799Z,13.80
2019-04-02T01:33:28.134Z,15.13
2019-04-02T01:35:55.911Z,16.40
2019-04-02T01:38:23.275Z,14.30
2019-04-02T01:40:50.631Z,14.27
2019-04-02T01:43:18.029Z,14.83
2019-04-02T01:45:45.390Z,15.00
2019-04-02T01:48:13.311Z,15.93
2019-04-02T01:50:41.244Z,15.03
2019-04-02T01:53:08.611Z,14.93
2019-04-02T01:55:36.011Z,14.33
2019-04-02T01:58:03.353Z,14.70
2019-04-02T02:00:30.968Z,13.67
2019-04-02T02:02:58.393Z,14.37
2019-04-02T02:05:25.731Z,14.90
2019-04-02T02:07:53.093Z,14.97
2019-04-02T02:10:20.489Z,15.17
2019-04-02T02:12:47.851Z,17.23
2019-04-02T02:15:15.283Z,16.60
2019-04-02T02:17:42.697Z,16.60
2019-04-02T02:20:10.132Z,16.50
2019-04-02T02:22:37.485Z,16.70
2019-04-02T02:25:04.991Z,15.13
2019-04-02T02:27:33.222Z,14.43
2019-04-02T02:30:01.612Z,14.43
2019-04-02T02:32:28.971Z,15.03
2019-04-02T02:34:56.346Z,14.67
2019-04-02T02:37:23.709Z,13.27
2019-04-02T02:39:53.261Z,15.00
2019-04-02T02:42:20.631Z,16.67
2019-04-02T02:44:48.040Z,14.50
2019-04-02T02:47:16.311Z,15.90
2019-04-02T02:49:43.912Z,14.70
2019-04-02T02:52:11.312Z,15.87
2019-04-02T02:54:38.647Z,16.53
2019-04-02T02:57:06.066Z,16.13
2019-04-02T02:59:33.441Z,16.30
2019-04-02T03:02:00.770Z,16.97
2019-04-02T03:04:30.832Z,16.50
2019-04-02T03:06:58.325Z,16.77
2019-04-02T03:09:25.752Z,17.43
2019-04-02T03:11:53.108Z,16.23
2019-04-02T03:14:20.492Z,17.43
2019-04-02T03:16:47.893Z,17.67
2019-04-02T03:19:15.288Z,19.33
2019-04-02T03:21:42.646Z,17.27
2019-04-02T03:24:10.023Z,17.13
2019-04-02T03:26:37.401Z,18.43
2019-04-02T03:29:04.815Z,18.17
2019-04-02T03:31:34.790Z,18.23
2019-04-02T03:34:01.442Z,16.83
2019-04-02T03:36:28.832Z,16.63
2019-04-02T03:38:56.194Z,15.73
2019-04-02T03:41:23.611Z,16.77
2019-04-02T03:43:50.952Z,16.90
2019-04-02T03:46:18.448Z,16.63
2019-04-02T03:48:45.848Z,18.30
2019-04-02T03:51:15.789Z,18.33
2019-04-02T03:53:42.493Z,18.23
2019-04-02T03:56:09.846Z,17.33
2019-04-02T03:58:37.207Z,16.83
2019-04-02T04:01:04.573Z,17.03
2019-04-02T04:03:32.764Z,16.67
2019-04-02T04:06:00.242Z,16.03
2019-04-02T04:08:27.653Z,16.87
2019-04-02T04:11:03.872Z,16.70
2019-04-02T04:13:31.292Z,17.63
2019-04-02T04:15:58.681Z,15.37
2019-04-02T04:18:26.002Z,16.17
2019-04-02T04:20:53.406Z,17.87
2019-04-02T04:23:20.856Z,16.37
2019-04-02T04:25:48.383Z,16.73
2019-04-02T04:28:15.756Z,15.83
2019-04-02T04:30:43.116Z,17.63
2019-04-02T04:33:10.529Z,16.63
2019-04-02T04:35:39.957Z,16.00
2019-04-02T04:38:07.128Z,15.87
2019-04-02T04:40:34.761Z,15.70
2019-04-02T04:43:02.172Z,15.27
2019-04-02T04:45:31.018Z,16.87
2019-04-02T04:47:59.692Z,17.30
2019-04-02T04:50:28.622Z,14.77
2019-04-02T04:52:57.264Z,15.03
2019-04-02T04:55:26.512Z,14.27
2019-04-02T04:57:55.226Z,13.87
2019-04-02T05:00:24.457Z,13.13
2019-04-02T05:03:28.580Z,14.00
2019-04-02T05:05:55.971Z,16.20
2019-04-02T05:08:23.429Z,16.63
2019-04-02T05:10:51.610Z,16.93
2019-04-02T05:13:19.394Z,16.70
2019-04-02T05:15:46.751Z,15.40
2019-04-02T05:18:14.171Z,15.77
2019-04-02T05:20:41.525Z,15.57
2019-04-02T05:23:08.900Z,15.90
2019-04-02T05:25:36.368Z,15.77
2019-04-02T05:28:03.760Z,16.17
2019-04-02T05:30:31.153Z,16.20
2019-04-02T05:33:00.336Z,15.47
2019-04-02T05:35:27.840Z,15.50
2019-04-02T05:37:55.271Z,15.70
2019-04-02T05:40:22.606Z,14.97
2019-04-02T05:42:50.005Z,14.90
2019-04-02T05:45:17.353Z,15.73
2019-04-02T05:47:44.749Z,15.33
2019-04-02T05:50:12.209Z,15.13
2019-04-02T05:52:39.570Z,14.87
2019-04-02T05:55:07.117Z,14.00
2019-04-02T05:57:34.527Z,15.80
2019-04-02T06:00:02.071Z,14.07
2019-04-02T06:02:29.406Z,13.30
2019-04-02T06:04:56.831Z,14.27
2019-04-02T06:07:24.190Z,14.47
2019-04-02T06:09:51.656Z,13.20
2019-04-02T06:12:19.047Z,13.07
2019-04-02T06:14:46.427Z,12.57
2019-04-02T06:17:13.781Z,14.47
2019-04-02T06:19:46.981Z,12.77
2019-04-02T06:22:10.432Z,12.67
2019-04-02T06:24:37.861Z,13.17
2019-04-02T06:27:05.207Z,13.07
2019-04-02T06:29:34.086Z,12.73
2019-04-02T06:32:01.491Z,12.30
2019-04-02T06:34:28.869Z,12.80
2019-04-02T06:36:56.245Z,12.50
2019-04-02T06:39:26.135Z,11.57
2019-04-02T06:41:52.891Z,11.90
2019-04-02T06:44:24.464Z,11.10
2019-04-02T06:46:50.880Z,10.57
2019-04-02T06:49:36.447Z,10.93
2019-04-02T06:52:03.814Z,11.20
2019-04-02T06:54:31.446Z,10.70
2019-04-02T06:56:59.120Z,11.03
2019-04-02T06:59:26.927Z,10.13
2019-04-02T07:01:54.315Z,10.13
2019-04-02T07:04:21.712Z,10.83
2019-04-02T07:06:49.116Z,10.40
2019-04-02T07:09:16.860Z,9.57
2019-04-02T07:11:44.207Z,8.90
2019-04-02T07:14:11.684Z,8.67
2019-04-02T07:16:42.056Z,9.43
2019-04-02T07:19:09.481Z,9.30
2019-04-02T07:21:36.819Z,8.60
2019-04-02T07:24:04.200Z,8.87
2019-04-02T07:26:31.894Z,9.10
2019-04-02T07:28:59.214Z,8.63
2019-04-02T07:31:26.628Z,8.23
2019-04-02T07:33:54.002Z,7.77
2019-04-02T07:36:21.375Z,7.33
2019-04-02T07:38:48.780Z,7.07
2019-04-02T07:41:16.172Z,6.47
2019-04-02T07:43:43.593Z,7.33
2019-04-02T07:46:10.976Z,7.37
2019-04-02T07:48:38.353Z,7.10
2019-04-02T07:51:05.711Z,6.83
2019-04-02T07:53:33.066Z,7.00
2019-04-02T07:56:00.421Z,7.63
2019-04-02T07:58:27.799Z,7.00
2019-04-02T08:00:55.961Z,7.20
2019-04-02T08:03:23.684Z,6.60
2019-04-02T08:05:51.023Z,6.63
2019-04-02T08:08:18.451Z,7.40
2019-04-02T08:10:45.764Z,7.60
2019-04-02T08:13:13.167Z,7.87
2019-04-02T08:15:40.525Z,8.20
2019-04-02T08:18:19.321Z,8.33
2019-04-02T08:20:46.705Z,8.43
2019-04-02T08:23:14.024Z,8.13
2019-04-02T08:25:41.382Z,7.77
2019-04-02T08:28:08.758Z,7.80
2019-04-02T08:30:36.469Z,8.43
2019-04-02T08:33:03.819Z,7.77
2019-04-02T08:35:31.148Z,7.27
2019-04-02T08:37:58.529Z,8.60
2019-04-02T08:40:26.155Z,8.50
2019-04-02T08:42:53.589Z,8.03
2019-04-02T08:45:20.909Z,7.43
2019-04-02T08:47:48.271Z,7.30
2019-04-02T08:50:15.785Z,7.00
2019-04-02T08:52:43.111Z,7.03
2019-04-02T08:55:11.128Z,6.60
2019-04-02T08:57:38.866Z,7.33
2019-04-02T09:00:09.519Z,6.73
2019-04-02T09:02:36.899Z,7.30
2019-04-02T09:05:05.153Z,6.90
2019-04-02T09:07:33.283Z,7.20
2019-04-02T09:10:00.784Z,6.97
2019-04-02T09:12:28.163Z,6.90
2019-04-02T09:14:55.541Z,6.37
2019-04-02T09:17:22.923Z,6.60
2019-04-02T09:19:50.308Z,6.97
2019-04-02T09:22:17.609Z,6.63
2019-04-02T09:24:44.965Z,7.60
2019-04-02T09:27:12.349Z,6.83
2019-04-02T09:29:39.790Z,7.13
2019-04-02T09:32:07.191Z,6.90
2019-04-02T09:34:34.539Z,7.37
2019-04-02T09:37:01.899Z,7.00
2019-04-02T09:39:29.330Z,7.17
2019-04-02T09:41:56.667Z,6.90
2019-04-02T09:44:24.029Z,6.90
2019-04-02T09:46:51.440Z,7.93
2019-04-02T09:49:18.782Z,7.73
2019-04-02T09:51:46.126Z,8.00
2019-04-02T09:54:13.584Z,7.13
2019-04-02T09:56:40.997Z,7.27
2019-04-02T09:59:08.411Z,7.60
2019-04-02T10:01:37.803Z,7.53
2019-04-02T10:04:08.128Z,8.07
2019-04-02T10:06:34.411Z,7.57
2019-04-02T10:09:02.431Z,7.30
2019-04-02T10:11:29.783Z,8.47
2019-04-02T10:13:57.182Z,7.70
2019-04-02T10:16:24.639Z,7.70
2019-04-02T10:18:52.595Z,9.27
2019-04-02T10:21:20.197Z,8.50
2019-04-02T10:23:47.636Z,8.40
2019-04-02T10:26:15.133Z,8.53
2019-04-02T10:28:42.546Z,9.13
2019-04-02T10:31:10.024Z,9.20
2019-04-02T10:33:37.372Z,9.30
2019-04-02T10:36:04.768Z,9.70
2019-04-02T10:38:32.152Z,10.00
2019-04-02T10:40:59.952Z,9.87
2019-04-02T10:43:27.281Z,10.13
2019-04-02T10:45:54.697Z,9.20
2019-04-02T10:48:22.046Z,9.90
2019-04-02T10:50:49.347Z,9.90
2019-04-02T10:53:16.690Z,10.27
2019-04-02T10:55:44.045Z,10.10
2019-04-02T10:58:12.181Z,9.07
2019-04-02T11:00:40.275Z,8.67
2019-04-02T11:03:07.639Z,8.53
2019-04-02T11:05:34.980Z,9.00
2019-04-02T11:08:02.365Z,6.40
2019-04-02T11:10:29.778Z,6.80
2019-04-02T11:12:57.150Z,7.27
2019-04-02T11:15:24.511Z,6.63
2019-04-02T11:17:51.898Z,5.87
2019-04-02T11:20:19.263Z,6.13
2019-04-02T11:22:46.630Z,7.10
2019-04-02T11:25:14.085Z,6.87
2019-04-02T11:27:41.476Z,6.50
2019-04-02T11:30:09.216Z,6.50
2019-04-02T11:32:36.589Z,5.80
2019-04-02T11:35:05.900Z,5.80
2019-04-02T11:37:33.259Z,5.80
2019-04-02T11:40:00.652Z,5.80
2019-04-02T11:42:27.970Z,5.47
2019-04-02T11:44:55.339Z,5.40
2019-04-02T11:47:22.851Z,5.53
2019-04-02T11:49:50.249Z,5.90
2019-04-02T11:52:17.627Z,5.57
2019-04-02T11:54:44.955Z,5.50
2019-04-02T11:57:12.410Z,5.67
2019-04-02T11:59:39.867Z,6.27
2019-04-02T12:02:09.104Z,5.70
2019-04-02T12:04:36.505Z,5.70
2019-04-02T12:07:03.977Z,6.30
2019-04-02T12:09:43.945Z,6.00
2019-04-02T12:12:00.631Z,6.50
2019-04-02T12:14:27.968Z,5.63
2019-04-02T12:16:55.358Z,5.10
2019-04-02T12:19:22.694Z,5.40
2019-04-02T12:21:50.082Z,4.93
2019-04-02T12:24:19.804Z,4.23
2019-04-02T12:26:46.677Z,5.43
2019-04-02T12:29:14.017Z,5.63
2019-04-02T12:31:41.414Z,4.90
2019-04-02T12:34:11.047Z,5.00
2019-04-02T12:36:38.009Z,4.83
2019-04-02T12:39:11.606Z,4.93
2019-04-02T12:41:39.470Z,4.50
2019-04-02T12:44:07.644Z,4.47
2019-04-02T12:46:35.025Z,4.27
2019-04-02T12:49:03.603Z,4.50
2019-04-02T12:51:31.621Z,4.00
2019-04-02T12:54:00.852Z,4.93
2019-04-02T12:56:28.353Z,3.67
2019-04-02T12:58:55.678Z,4.50
2019-04-02T13:01:23.163Z,4.53
2019-04-02T13:03:50.546Z,3.40
2019-04-02T13:06:17.934Z,3.73
2019-04-02T13:08:45.332Z,3.67
2019-04-02T13:11:14.083Z,3.70
2019-04-02T13:13:41.737Z,3.57
2019-04-02T13:16:09.171Z,3.73
2019-04-02T13:18:36.649Z,3.33
2019-04-02T13:21:05.490Z,3.30
2019-04-02T13:23:33.054Z,3.20
2019-04-02T13:26:00.438Z,3.23
2019-04-02T13:28:30.375Z,3.30
2019-04-02T13:30:57.187Z,2.73
2019-04-02T13:33:24.583Z,2.93
2019-04-02T13:35:51.965Z,3.63
2019-04-02T13:38:19.365Z,3.10
2019-04-02T13:40:46.726Z,3.17
2019-04-02T13:43:14.123Z,3.17
2019-04-02T13:45:41.529Z,3.30
2019-04-02T13:48:08.928Z,3.20
2019-04-02T13:50:36.331Z,3.10
2019-04-02T13:53:03.812Z,3.10
2019-04-02T13:55:31.208Z,3.33
2019-04-02T13:57:59.297Z,3.37
2019-04-02T14:01:11.844Z,2.90
2019-04-02T14:03:40.509Z,3.23
2019-04-02T14:06:08.082Z,3.30
2019-04-02T14:08:35.470Z,2.93
2019-04-02T14:11:03.052Z,2.90
2019-04-02T14:13:30.647Z,3.23
2019-04-02T14:15:58.052Z,3.00
2019-04-02T14:18:25.609Z,2.80
2019-04-02T14:20:53.208Z,2.90
2019-04-02T14:23:20.762Z,2.90
2019-04-02T14:25:48.281Z,2.90
2019-04-02T14:28:17.189Z,3.10
2019-04-02T14:30:45.392Z,3.30
2019-04-02T14:33:13.177Z,3.27
2019-04-02T14:35:40.910Z,3.30
2019-04-02T14:38:08.588Z,3.03
2019-04-02T14:40:36.422Z,3.20
2019-04-02T14:43:04.066Z,3.30
2019-04-02T14:45:31.805Z,3.30
2019-04-02T14:47:59.696Z,3.10
2019-04-02T14:50:30.851Z,3.13
2019-04-02T14:52:56.958Z,3.10
2019-04-02T14:55:24.758Z,3.10
2019-04-02T14:57:52.455Z,2.90
2019-04-02T15:00:20.029Z,3.23
2019-04-02T15:02:47.608Z,2.90
2019-04-02T15:05:15.316Z,3.10
2019-04-02T15:07:42.849Z,2.83
2019-04-02T15:10:10.520Z,3.07
2019-04-02T15:12:38.068Z,3.10
2019-04-02T15:15:05.930Z,3.07
2019-04-02T15:17:33.728Z,3.43
2019-04-02T15:20:01.415Z,3.40
2019-04-02T15:22:28.989Z,3.20
2019-04-02T15:24:56.673Z,2.83
2019-04-02T15:27:24.628Z,3.20
2019-04-02T15:29:52.499Z,2.83
2019-04-02T15:32:20.163Z,3.00
2019-04-02T15:34:48.007Z,3.03
2019-04-02T15:37:15.733Z,3.07
2019-04-02T15:39:44.281Z,3.07
2019-04-02T15:42:11.950Z,2.50
2019-04-02T15:44:39.686Z,3.00
2019-04-02T15:47:07.493Z,3.20
2019-04-02T15:49:35.275Z,3.00
2019-04-02T15:52:06.962Z,2.77
2019-04-02T15:54:34.931Z,2.67
2019-04-02T15:57:02.654Z,2.60
2019-04-02T15:59:30.400Z,2.30
2019-04-02T16:02:01.911Z,2.77
2019-04-02T16:04:28.755Z,2.97
2019-04-02T16:06:56.635Z,3.10
2019-04-02T16:09:24.406Z,2.90
2019-04-02T16:11:52.370Z,2.93
2019-04-02T16:14:20.311Z,2.27
2019-04-02T16:16:48.206Z,2.40
2019-04-02T16:19:16.008Z,2.70
2019-04-02T16:21:43.932Z,2.40
2019-04-02T16:24:11.698Z,2.00
2019-04-02T16:26:39.453Z,2.90
2019-04-02T16:29:07.359Z,2.50
2019-04-02T16:31:35.175Z,2.37
2019-04-02T16:34:03.210Z,2.43
2019-04-02T16:36:31.160Z,10.40
2019-04-02T16:38:58.991Z,3.27
2019-04-02T16:41:27.430Z,2.70
2019-04-02T16:43:55.308Z,2.83
2019-04-02T16:46:23.216Z,2.60
2019-04-02T16:48:51.628Z,2.23
2019-04-02T16:51:19.486Z,2.70
2019-04-02T16:53:47.328Z,2.70
2019-04-02T16:56:15.289Z,3.47
2019-04-02T16:58:43.213Z,3.17
2019-04-02T17:01:11.048Z,3.20
2019-04-02T17:03:48.239Z,3.30
2019-04-02T17:06:09.388Z,3.37
2019-04-02T17:08:37.348Z,3.20
2019-04-02T17:11:05.311Z,3.20
2019-04-02T17:13:34.530Z,3.23
2019-04-02T17:16:02.777Z,3.10
2019-04-02T17:18:30.664Z,3.13
2019-04-02T17:20:58.580Z,2.70
2019-04-02T17:23:26.571Z,3.03
2019-04-02T17:25:54.874Z,2.90
2019-04-02T17:28:23.666Z,3.50
2019-04-02T17:30:52.883Z,2.90
2019-04-02T17:33:21.960Z,3.30
2019-04-02T17:35:50.131Z,3.50
2019-04-02T17:38:18.237Z,3.23
2019-04-02T17:40:46.195Z,3.50
2019-04-02T17:43:14.052Z,3.17
2019-04-02T17:45:42.085Z,3.33
2019-04-02T17:48:10.122Z,3.00
2019-04-02T17:50:38.116Z,3.03
2019-04-02T17:53:08.787Z,3.00
2019-04-02T17:55:36.306Z,3.23
2019-04-02T17:58:04.345Z,3.00
2019-04-02T18:00:32.447Z,3.10
2019-04-02T18:03:00.525Z,3.10
2019-04-02T18:05:28.547Z,2.87
2019-04-02T18:07:56.643Z,3.40
2019-04-02T18:10:26.202Z,3.27
2019-04-02T18:12:54.612Z,3.20
2019-04-02T18:15:22.615Z,3.17
2019-04-02T18:17:50.572Z,3.53
2019-04-02T18:20:18.511Z,3.50
2019-04-02T18:22:46.458Z,3.17
2019-04-02T18:25:14.523Z,3.10
2019-04-02T18:27:43.974Z,3.87
2019-04-02T18:30:14.036Z,3.33
2019-04-02T18:32:42.696Z,3.33
2019-04-02T18:35:10.728Z,3.67
2019-04-02T18:37:38.738Z,3.57
2019-04-02T18:40:07.775Z,3.53
2019-04-02T18:42:36.772Z,3.60
2019-04-02T18:45:05.851Z,3.47
2019-04-02T18:47:35.385Z,4.27
2019-04-02T18:50:03.703Z,3.70
2019-04-02T18:52:31.790Z,4.07
2019-04-02T18:54:59.881Z,3.70
2019-04-02T18:57:27.887Z,4.33
2019-04-02T18:59:58.234Z,4.33
2019-04-02T19:02:29.261Z,3.67
2019-04-02T19:04:56.333Z,3.90
2019-04-02T19:07:24.832Z,4.30
2019-04-02T19:09:52.939Z,4.40
2019-04-02T19:12:20.863Z,4.33
2019-04-02T19:18:12.804Z,4.03
2019-04-02T19:20:41.077Z,4.10
2019-04-02T19:23:10.389Z,4.00
2019-04-02T19:25:38.854Z,3.70
2019-04-02T19:28:09.971Z,3.77
2019-04-02T19:30:38.583Z,4.07
2019-04-02T19:33:09.858Z,4.00
2019-04-02T19:35:37.955Z,3.63
2019-04-02T19:38:06.083Z,4.27
2019-04-02T19:40:34.647Z,3.97
2019-04-02T19:43:07.824Z,3.77
2019-04-02T19:45:32.569Z,3.67
2019-04-02T19:48:03.336Z,4.00
2019-04-02T19:50:30.486Z,3.80
2019-04-02T19:52:59.006Z,4.07
2019-04-02T19:55:26.992Z,3.60
2019-04-02T19:57:54.999Z,3.47
2019-04-02T20:00:23.051Z,3.30
2019-04-02T20:02:50.875Z,3.80
2019-04-02T20:05:19.803Z,3.23
2019-04-02T20:07:49.346Z,3.33
2019-04-02T20:10:17.511Z,3.00
2019-04-02T20:12:45.499Z,3.63
2019-04-02T20:15:13.609Z,3.77
2019-04-02T20:17:41.630Z,3.30
2019-04-02T20:20:10.027Z,3.40
2019-04-02T20:22:37.965Z,3.10
2019-04-02T20:25:06.131Z,3.53
2019-04-02T20:27:34.054Z,3.20
2019-04-02T20:30:04.900Z,3.33
2019-04-02T20:32:32.729Z,3.40
2019-04-02T20:35:00.709Z,3.20
2019-04-02T20:37:30.507Z,3.60
2019-04-02T20:39:59.015Z,3.60
2019-04-02T20:42:28.969Z,3.20
2019-04-02T20:44:57.287Z,3.17
2019-04-02T20:47:24.956Z,3.30
2019-04-02T20:49:52.906Z,3.40
2019-04-02T20:52:20.846Z,3.30
2019-04-02T20:54:48.810Z,3.17
2019-04-02T20:57:16.645Z,3.20
2019-04-02T20:59:46.721Z,2.90
2019-04-02T21:02:14.665Z,3.07
2019-04-02T21:04:52.046Z,3.40
2019-04-02T21:07:12.315Z,3.33
2019-04-02T21:09:39.943Z,3.50
2019-04-02T21:12:11.530Z,3.43
2019-04-02T21:14:37.406Z,3.30
2019-04-02T21:17:04.928Z,3.70
2019-04-02T21:19:32.409Z,3.87
2019-04-02T21:22:00.175Z,3.47
2019-04-02T21:24:27.641Z,4.00
2019-04-02T21:26:55.026Z,3.93
2019-04-02T21:29:23.630Z,3.80
2019-04-02T21:31:51.791Z,3.60
2019-04-02T21:34:19.222Z,3.70
2019-04-02T21:36:48.230Z,3.70
2019-04-02T21:39:17.048Z,3.90
2019-04-02T21:41:45.030Z,4.13
2019-04-02T21:44:12.591Z,3.80
2019-04-02T21:46:39.971Z,3.97
2019-04-02T21:49:07.586Z,3.80
2019-04-02T21:51:35.586Z,3.80
2019-04-02T21:54:04.426Z,3.87
2019-04-02T21:56:31.769Z,3.93
2019-04-02T21:58:59.161Z,3.90
2019-04-02T22:01:26.710Z,3.83
2019-04-02T22:03:54.119Z,4.00
2019-04-02T22:06:21.539Z,3.40
2019-04-02T22:08:48.909Z,3.90
2019-04-02T22:11:16.291Z,3.77
2019-04-02T22:13:43.626Z,3.63
2019-04-02T22:16:12.834Z,3.60
2019-04-02T22:18:41.557Z,3.97
2019-04-02T22:21:09.645Z,3.67
2019-04-02T22:23:37.012Z,3.63
2019-04-02T22:26:04.613Z,3.50
2019-04-02T22:28:31.990Z,3.90
2019-04-02T22:30:59.398Z,3.67
2019-04-02T22:33:36.324Z,3.80
2019-04-02T22:35:56.111Z,3.77
2019-04-02T22:38:24.748Z,3.77
2019-04-02T22:40:53.950Z,4.00
2019-04-02T22:43:23.709Z,4.00
2019-04-02T22:45:50.904Z,4.00
2019-04-02T22:48:18.303Z,3.80
2019-04-02T22:50:47.646Z,3.97
2019-04-02T22:53:15.007Z,3.80
2019-04-02T22:55:42.366Z,4.20
2019-04-02T22:58:09.796Z,4.20
2019-04-02T23:00:37.191Z,3.70
2019-04-02T23:03:04.591Z,3.90
2019-04-02T23:05:32.868Z,3.70
2019-04-02T23:08:03.231Z,3.90
2019-04-02T23:10:30.208Z,3.80
2019-04-02T23:12:57.622Z,3.90
2019-04-02T23:15:25.012Z,4.10
2019-04-02T23:17:55.688Z,3.93
2019-04-02T23:20:21.753Z,3.97
2019-04-02T23:22:49.091Z,3.80
2019-04-02T23:25:17.745Z,4.00
2019-04-02T23:27:46.977Z,3.90
2019-04-02T23:30:15.015Z,4.07
2019-04-02T23:32:42.431Z,3.97
2019-04-02T23:35:09.809Z,3.77
2019-04-02T23:37:37.251Z,4.07
2019-04-02T23:40:06.779Z,4.10
2019-04-02T23:42:34.189Z,4.03
2019-04-02T23:45:03.027Z,4.20
2019-04-02T23:47:31.763Z,4.40
2019-04-02T23:50:00.092Z,4.60
2019-04-02T23:52:27.470Z,4.60
2019-04-02T23:54:54.831Z,4.27
2019-04-02T23:57:22.231Z,4.93
2019-04-02T23:59:49.595Z,4.80
